sensor_id;sensor_type;location;lat;lon;timestamp;temperature;humidity
27540;DHT22;15906;52.046;4.724;2024-03-23T02:25:32;6.80;99.90
27540;DHT22;15906;52.046;4.724;2024-03-23T02:27:59;6.90;99.90
27540;DHT22;15906;52.046;4.724;2024-03-23T02:30:25;6.80;99.90
27540;DHT22;15906;52.046;4.724;2024-03-23T02:32:51;6.70;99.90
27540;DHT22;15906;52.046;4.724;2024-03-23T02:35:17;6.70;99.90
27540;DHT22;15906;52.046;4.724;2024-03-23T02:37:43;6.60;99.90
27540;DHT22;15906;52.046;4.724;2024-03-23T02:40:08;6.70;99.90
27540;DHT22;15906;52.046;4.724;2024-03-23T02:42:34;6.60;99.90
27540;DHT22;15906;52.046;4.724;2024-03-23T02:45:00;6.60;99.90
27540;DHT22;15906;52.046;4.724;2024-03-23T02:47:25;6.50;99.90
27540;DHT22;15906;52.046;4.724;2024-03-23T02:49:51;6.50;99.90
27540;DHT22;15906;52.046;4.724;2024-03-23T02:52:16;6.40;99.90
27540;DHT22;15906;52.046;4.724;2024-03-23T02:54:42;6.40;99.90
27540;DHT22;15906;52.046;4.724;2024-03-23T02:57:10;6.40;99.90
27540;DHT22;15906;52.046;4.724;2024-03-23T02:59:36;6.40;99.90
27540;DHT22;15906;52.046;4.724;2024-03-23T03:02:01;6.40;99.90
27540;DHT22;15906;52.046;4.724;2024-03-23T03:04:29;6.30;99.90
27540;DHT22;15906;52.046;4.724;2024-03-23T03:06:55;6.30;99.90
27540;DHT22;15906;52.046;4.724;2024-03-23T03:09:21;6.30;99.90
27540;DHT22;15906;52.046;4.724;2024-03-23T03:11:46;6.20;99.90
27540;DHT22;15906;52.046;4.724;2024-03-23T03:14:12;6.10;99.90
27540;DHT22;15906;52.046;4.724;2024-03-23T03:16:37;6.10;99.90
27540;DHT22;15906;52.046;4.724;2024-03-23T03:19:03;6.10;99.90
27540;DHT22;15906;52.046;4.724;2024-03-23T03:21:29;6.10;99.90
27540;DHT22;15906;52.046;4.724;2024-03-23T03:23:54;6.10;99.90
27540;DHT22;15906;52.046;4.724;2024-03-23T03:26:22;6.00;99.90
27540;DHT22;15906;52.046;4.724;2024-03-23T03:28:48;6.00;99.90
27540;DHT22;15906;52.046;4.724;2024-03-23T03:31:15;6.00;99.90
27540;DHT22;15906;52.046;4.724;2024-03-23T03:33:41;6.00;99.90
27540;DHT22;15906;52.046;4.724;2024-03-23T03:36:07;6.00;99.90
27540;DHT22;15906;52.046;4.724;2024-03-23T03:38:33;6.00;99.90
27540;DHT22;15906;52.046;4.724;2024-03-23T03:41:01;6.00;99.90
27540;DHT22;15906;52.046;4.724;2024-03-23T03:43:26;6.10;99.90
27540;DHT22;15906;52.046;4.724;2024-03-23T03:45:53;6.00;99.90
27540;DHT22;15906;52.046;4.724;2024-03-23T03:48:19;6.00;99.90
27540;DHT22;15906;52.046;4.724;2024-03-23T03:50:44;6.00;99.90
27540;DHT22;15906;52.046;4.724;2024-03-23T03:53:10;6.00;99.90
27540;DHT22;15906;52.046;4.724;2024-03-23T03:55:35;5.90;99.90
27540;DHT22;15906;52.046;4.724;2024-03-23T03:58:01;6.00;99.90
27540;DHT22;15906;52.046;4.724;2024-03-23T04:00:27;6.00;99.90
27540;DHT22;15906;52.046;4.724;2024-03-23T04:02:52;6.00;99.90
27540;DHT22;15906;52.046;4.724;2024-03-23T04:05:18;6.00;99.90
27540;DHT22;15906;52.046;4.724;2024-03-23T04:07:45;5.90;99.90
27540;DHT22;15906;52.046;4.724;2024-03-23T04:10:11;6.00;99.90
27540;DHT22;15906;52.046;4.724;2024-03-23T04:12:37;6.00;99.90
27540;DHT22;15906;52.046;4.724;2024-03-23T04:15:03;5.90;99.90
27540;DHT22;15906;52.046;4.724;2024-03-23T04:17:30;5.90;99.90
27540;DHT22;15906;52.046;4.724;2024-03-23T04:20:00;5.90;99.90
27540;DHT22;15906;52.046;4.724;2024-03-23T04:22:26;5.90;99.90
27540;DHT22;15906;52.046;4.724;2024-03-23T04:24:58;5.80;99.90
27540;DHT22;15906;52.046;4.724;2024-03-23T04:27:23;5.70;99.90
27540;DHT22;15906;52.046;4.724;2024-03-23T04:29:52;5.70;99.90
27540;DHT22;15906;52.046;4.724;2024-03-23T04:32:18;5.80;99.90
27540;DHT22;15906;52.046;4.724;2024-03-23T04:34:44;5.70;99.90
27540;DHT22;15906;52.046;4.724;2024-03-23T04:37:11;5.70;99.90
27540;DHT22;15906;52.046;4.724;2024-03-23T04:39:37;5.70;99.90
27540;DHT22;15906;52.046;4.724;2024-03-23T04:42:03;5.70;99.90
27540;DHT22;15906;52.046;4.724;2024-03-23T04:44:29;5.70;99.90
27540;DHT22;15906;52.046;4.724;2024-03-23T04:46:55;5.70;99.90
27540;DHT22;15906;52.046;4.724;2024-03-23T04:49:20;5.60;99.90
27540;DHT22;15906;52.046;4.724;2024-03-23T04:51:46;5.70;99.90
27540;DHT22;15906;52.046;4.724;2024-03-23T04:54:15;5.60;99.90
27540;DHT22;15906;52.046;4.724;2024-03-23T04:56:41;5.60;99.90
27540;DHT22;15906;52.046;4.724;2024-03-23T04:59:07;5.60;99.90
27540;DHT22;15906;52.046;4.724;2024-03-23T05:01:33;5.50;99.90
27540;DHT22;15906;52.046;4.724;2024-03-23T05:03:58;5.50;99.90
27540;DHT22;15906;52.046;4.724;2024-03-23T05:06:25;5.50;99.90
27540;DHT22;15906;52.046;4.724;2024-03-23T05:08:51;5.50;99.90
27540;DHT22;15906;52.046;4.724;2024-03-23T05:11:17;5.50;99.90
27540;DHT22;15906;52.046;4.724;2024-03-23T05:13:44;5.50;99.90
27540;DHT22;15906;52.046;4.724;2024-03-23T05:16:09;5.50;99.90
27540;DHT22;15906;52.046;4.724;2024-03-23T05:18:35;5.50;99.90
27540;DHT22;15906;52.046;4.724;2024-03-23T05:21:01;5.50;99.90
27540;DHT22;15906;52.046;4.724;2024-03-23T05:23:28;5.60;99.90
27540;DHT22;15906;52.046;4.724;2024-03-23T05:25:54;5.60;99.90
27540;DHT22;15906;52.046;4.724;2024-03-23T05:28:21;5.60;99.90
27540;DHT22;15906;52.046;4.724;2024-03-23T05:30:53;5.70;99.90
27540;DHT22;15906;52.046;4.724;2024-03-23T05:33:20;5.70;99.90
27540;DHT22;15906;52.046;4.724;2024-03-23T05:35:46;5.60;99.90
27540;DHT22;15906;52.046;4.724;2024-03-23T05:38:13;5.80;99.90
27540;DHT22;15906;52.046;4.724;2024-03-23T05:40:39;5.90;99.90
27540;DHT22;15906;52.046;4.724;2024-03-23T05:43:06;5.90;99.90
27540;DHT22;15906;52.046;4.724;2024-03-23T05:45:32;5.90;99.90
27540;DHT22;15906;52.046;4.724;2024-03-23T05:47:58;5.90;99.90
27540;DHT22;15906;52.046;4.724;2024-03-23T05:50:24;5.90;99.90
27540;DHT22;15906;52.046;4.724;2024-03-23T05:52:50;6.10;99.90
27540;DHT22;15906;52.046;4.724;2024-03-23T05:55:16;6.10;99.90
27540;DHT22;15906;52.046;4.724;2024-03-23T05:57:41;6.20;99.90
27540;DHT22;15906;52.046;4.724;2024-03-23T06:00:07;6.30;99.90
27540;DHT22;15906;52.046;4.724;2024-03-23T06:02:44;6.30;99.90
27540;DHT22;15906;52.046;4.724;2024-03-23T06:05:11;6.30;99.90
27540;DHT22;15906;52.046;4.724;2024-03-23T06:07:37;6.40;99.90
27540;DHT22;15906;52.046;4.724;2024-03-23T06:10:03;6.40;99.90
27540;DHT22;15906;52.046;4.724;2024-03-23T06:12:28;6.50;99.90
27540;DHT22;15906;52.046;4.724;2024-03-23T06:14:54;6.50;99.90
27540;DHT22;15906;52.046;4.724;2024-03-23T06:17:20;6.50;99.90
27540;DHT22;15906;52.046;4.724;2024-03-23T06:19:46;6.50;99.90
27540;DHT22;15906;52.046;4.724;2024-03-23T06:22:11;6.50;99.90
27540;DHT22;15906;52.046;4.724;2024-03-23T06:24:37;6.40;99.90
27540;DHT22;15906;52.046;4.724;2024-03-23T06:27:03;6.50;99.90
27540;DHT22;15906;52.046;4.724;2024-03-23T06:29:28;6.60;99.90
27540;DHT22;15906;52.046;4.724;2024-03-23T06:31:54;6.60;99.90
27540;DHT22;15906;52.046;4.724;2024-03-23T06:34:20;6.60;99.90
27540;DHT22;15906;52.046;4.724;2024-03-23T06:36:48;6.70;99.90
27540;DHT22;15906;52.046;4.724;2024-03-23T06:39:15;6.80;99.90
27540;DHT22;15906;52.046;4.724;2024-03-23T06:41:52;6.80;99.90
27540;DHT22;15906;52.046;4.724;2024-03-23T06:44:18;6.80;99.90
27540;DHT22;15906;52.046;4.724;2024-03-23T06:46:44;6.90;99.90
27540;DHT22;15906;52.046;4.724;2024-03-23T06:49:10;7.00;99.90
27540;DHT22;15906;52.046;4.724;2024-03-23T06:51:35;7.00;99.90
27540;DHT22;15906;52.046;4.724;2024-03-23T06:54:02;7.00;99.90
27540;DHT22;15906;52.046;4.724;2024-03-23T06:56:29;7.00;99.90
27540;DHT22;15906;52.046;4.724;2024-03-23T06:58:54;7.00;99.90
27540;DHT22;15906;52.046;4.724;2024-03-23T07:01:20;7.10;99.90
27540;DHT22;15906;52.046;4.724;2024-03-23T07:03:46;7.10;99.90
27540;DHT22;15906;52.046;4.724;2024-03-23T07:06:12;7.00;99.90
27540;DHT22;15906;52.046;4.724;2024-03-23T07:08:37;7.10;99.90
27540;DHT22;15906;52.046;4.724;2024-03-23T07:11:03;7.30;99.90
27540;DHT22;15906;52.046;4.724;2024-03-23T07:13:30;7.30;99.90
27540;DHT22;15906;52.046;4.724;2024-03-23T07:15:56;7.50;99.90
27540;DHT22;15906;52.046;4.724;2024-03-23T07:18:22;7.40;99.90
27540;DHT22;15906;52.046;4.724;2024-03-23T07:20:58;7.40;99.90
27540;DHT22;15906;52.046;4.724;2024-03-23T07:23:24;7.50;99.90
27540;DHT22;15906;52.046;4.724;2024-03-23T07:26:00;7.60;99.90
27540;DHT22;15906;52.046;4.724;2024-03-23T07:28:26;7.50;99.90
27540;DHT22;15906;52.046;4.724;2024-03-23T07:31:21;7.60;99.90
27540;DHT22;15906;52.046;4.724;2024-03-23T07:33:48;7.40;99.90
27540;DHT22;15906;52.046;4.724;2024-03-23T07:36:14;7.50;99.90
27540;DHT22;15906;52.046;4.724;2024-03-23T07:38:43;7.70;99.90
27540;DHT22;15906;52.046;4.724;2024-03-23T07:41:15;8.10;99.90
27540;DHT22;15906;52.046;4.724;2024-03-23T07:43:42;8.50;99.90
27540;DHT22;15906;52.046;4.724;2024-03-23T07:46:08;8.60;99.90
27540;DHT22;15906;52.046;4.724;2024-03-23T07:48:34;8.20;99.90
27540;DHT22;15906;52.046;4.724;2024-03-23T07:51:09;8.10;99.90
27540;DHT22;15906;52.046;4.724;2024-03-23T07:53:36;7.90;99.90
27540;DHT22;15906;52.046;4.724;2024-03-23T07:56:08;7.90;99.90
27540;DHT22;15906;52.046;4.724;2024-03-23T07:58:34;7.80;99.90
27540;DHT22;15906;52.046;4.724;2024-03-23T08:01:10;8.00;99.90
27540;DHT22;15906;52.046;4.724;2024-03-23T08:03:37;8.00;99.90
27540;DHT22;15906;52.046;4.724;2024-03-23T08:06:16;8.00;99.90
27540;DHT22;15906;52.046;4.724;2024-03-23T08:08:44;8.20;99.90
27540;DHT22;15906;52.046;4.724;2024-03-23T08:11:10;8.40;99.90
27540;DHT22;15906;52.046;4.724;2024-03-23T08:13:38;8.50;99.90
27540;DHT22;15906;52.046;4.724;2024-03-23T08:16:04;8.70;99.90
27540;DHT22;15906;52.046;4.724;2024-03-23T08:18:30;8.90;99.90
27540;DHT22;15906;52.046;4.724;2024-03-23T08:23:27;8.80;99.90
27540;DHT22;15906;52.046;4.724;2024-03-23T08:25:58;8.60;99.90
27540;DHT22;15906;52.046;4.724;2024-03-23T08:28:24;8.50;99.90
27540;DHT22;15906;52.046;4.724;2024-03-23T08:30:49;8.40;99.90
27540;DHT22;15906;52.046;4.724;2024-03-23T08:33:16;8.30;99.90
27540;DHT22;15906;52.046;4.724;2024-03-23T08:35:42;8.30;99.90
27540;DHT22;15906;52.046;4.724;2024-03-23T08:38:07;8.40;99.90
27540;DHT22;15906;52.046;4.724;2024-03-23T08:40:33;8.30;99.90
27540;DHT22;15906;52.046;4.724;2024-03-23T08:42:59;8.40;99.90
27540;DHT22;15906;52.046;4.724;2024-03-23T08:45:25;8.40;99.90
27540;DHT22;15906;52.046;4.724;2024-03-23T08:47:51;8.50;99.90
27540;DHT22;15906;52.046;4.724;2024-03-23T08:50:17;8.90;99.90
27540;DHT22;15906;52.046;4.724;2024-03-23T08:52:42;9.10;99.90
27540;DHT22;15906;52.046;4.724;2024-03-23T08:55:08;9.10;99.90
27540;DHT22;15906;52.046;4.724;2024-03-23T08:57:35;9.10;99.90
27540;DHT22;15906;52.046;4.724;2024-03-23T09:00:00;8.80;99.90
27540;DHT22;15906;52.046;4.724;2024-03-23T09:02:26;8.60;99.90
27540;DHT22;15906;52.046;4.724;2024-03-23T09:04:52;8.50;99.90
27540;DHT22;15906;52.046;4.724;2024-03-23T09:07:17;8.90;99.90
27540;DHT22;15906;52.046;4.724;2024-03-23T09:09:43;9.00;99.90
27540;DHT22;15906;52.046;4.724;2024-03-23T09:12:09;9.00;99.90
27540;DHT22;15906;52.046;4.724;2024-03-23T09:14:34;9.00;99.90
27540;DHT22;15906;52.046;4.724;2024-03-23T09:17:00;8.70;99.90
27540;DHT22;15906;52.046;4.724;2024-03-23T09:19:29;8.50;99.90
27540;DHT22;15906;52.046;4.724;2024-03-23T09:21:55;8.80;99.90
27540;DHT22;15906;52.046;4.724;2024-03-23T09:24:20;9.10;99.90
27540;DHT22;15906;52.046;4.724;2024-03-23T09:26:46;9.40;99.90
27540;DHT22;15906;52.046;4.724;2024-03-23T09:29:12;9.50;99.90
27540;DHT22;15906;52.046;4.724;2024-03-23T09:31:37;9.20;99.90
27540;DHT22;15906;52.046;4.724;2024-03-23T09:34:04;8.90;99.90
27540;DHT22;15906;52.046;4.724;2024-03-23T09:36:29;8.80;99.90
27540;DHT22;15906;52.046;4.724;2024-03-23T09:38:55;8.60;99.90
27540;DHT22;15906;52.046;4.724;2024-03-23T09:41:20;8.60;99.90
27540;DHT22;15906;52.046;4.724;2024-03-23T09:43:46;8.60;99.90
27540;DHT22;15906;52.046;4.724;2024-03-23T09:46:14;8.70;99.90
27540;DHT22;15906;52.046;4.724;2024-03-23T09:48:40;8.80;99.90
27540;DHT22;15906;52.046;4.724;2024-03-23T09:51:06;9.00;99.90
27540;DHT22;15906;52.046;4.724;2024-03-23T09:53:35;9.20;99.90
27540;DHT22;15906;52.046;4.724;2024-03-23T09:56:03;9.90;99.90
27540;DHT22;15906;52.046;4.724;2024-03-23T09:58:28;10.30;99.90
27540;DHT22;15906;52.046;4.724;2024-03-23T10:00:54;10.70;99.90
27540;DHT22;15906;52.046;4.724;2024-03-23T10:03:19;10.50;99.90
27540;DHT22;15906;52.046;4.724;2024-03-23T10:05:45;10.20;99.90
27540;DHT22;15906;52.046;4.724;2024-03-23T10:10:43;9.70;99.90
27540;DHT22;15906;52.046;4.724;2024-03-23T10:13:08;9.50;99.90
27540;DHT22;15906;52.046;4.724;2024-03-23T10:15:35;9.60;99.90
27540;DHT22;15906;52.046;4.724;2024-03-23T10:18:20;10.20;99.90
27540;DHT22;15906;52.046;4.724;2024-03-23T10:20:51;10.80;99.90
27540;DHT22;15906;52.046;4.724;2024-03-23T10:23:17;11.00;99.90
27540;DHT22;15906;52.046;4.724;2024-03-23T10:25:43;10.80;99.90
27540;DHT22;15906;52.046;4.724;2024-03-23T10:28:09;10.50;99.90
27540;DHT22;15906;52.046;4.724;2024-03-23T10:30:36;10.00;99.90
27540;DHT22;15906;52.046;4.724;2024-03-23T10:33:09;9.80;99.90
27540;DHT22;15906;52.046;4.724;2024-03-23T10:35:36;9.60;99.90
27540;DHT22;15906;52.046;4.724;2024-03-23T10:38:06;9.70;99.90
27540;DHT22;15906;52.046;4.724;2024-03-23T10:40:35;10.00;99.90
27540;DHT22;15906;52.046;4.724;2024-03-23T10:43:05;9.90;99.90
27540;DHT22;15906;52.046;4.724;2024-03-23T10:45:31;10.40;99.90
27540;DHT22;15906;52.046;4.724;2024-03-23T10:47:57;10.40;99.90
27540;DHT22;15906;52.046;4.724;2024-03-23T10:50:23;10.20;99.90
27540;DHT22;15906;52.046;4.724;2024-03-23T10:52:49;10.40;99.90
27540;DHT22;15906;52.046;4.724;2024-03-23T10:55:17;10.50;99.90
27540;DHT22;15906;52.046;4.724;2024-03-23T10:57:58;10.30;99.90
27540;DHT22;15906;52.046;4.724;2024-03-23T11:00:25;10.30;99.90
27540;DHT22;15906;52.046;4.724;2024-03-23T11:02:51;10.10;99.90
27540;DHT22;15906;52.046;4.724;2024-03-23T11:07:52;9.80;99.90
27540;DHT22;15906;52.046;4.724;2024-03-23T11:10:36;9.80;99.90
27540;DHT22;15906;52.046;4.724;2024-03-23T11:13:21;9.80;99.90
27540;DHT22;15906;52.046;4.724;2024-03-23T11:15:47;9.90;99.90
27540;DHT22;15906;52.046;4.724;2024-03-23T11:18:20;10.00;99.90
27540;DHT22;15906;52.046;4.724;2024-03-23T11:20:46;9.70;99.90
27540;DHT22;15906;52.046;4.724;2024-03-23T11:23:27;9.60;99.90
27540;DHT22;15906;52.046;4.724;2024-03-23T11:25:53;9.60;99.90
27540;DHT22;15906;52.046;4.724;2024-03-23T11:28:19;10.00;99.90
27540;DHT22;15906;52.046;4.724;2024-03-23T11:30:44;10.60;99.90
27540;DHT22;15906;52.046;4.724;2024-03-23T11:33:10;11.20;99.90
27540;DHT22;15906;52.046;4.724;2024-03-23T11:35:39;11.60;99.90
27540;DHT22;15906;52.046;4.724;2024-03-23T11:38:15;11.90;99.90
27540;DHT22;15906;52.046;4.724;2024-03-23T11:40:47;12.40;99.90
27540;DHT22;15906;52.046;4.724;2024-03-23T11:43:15;12.30;99.30
27540;DHT22;15906;52.046;4.724;2024-03-23T11:45:52;11.80;99.40
27540;DHT22;15906;52.046;4.724;2024-03-23T11:48:22;11.60;99.90
27540;DHT22;15906;52.046;4.724;2024-03-23T11:50:50;11.70;99.70
27540;DHT22;15906;52.046;4.724;2024-03-23T11:53:20;11.80;99.40
27540;DHT22;15906;52.046;4.724;2024-03-23T11:55:52;11.30;99.40
27540;DHT22;15906;52.046;4.724;2024-03-23T11:58:22;11.00;99.90
27540;DHT22;15906;52.046;4.724;2024-03-23T12:00:56;10.90;99.90
27540;DHT22;15906;52.046;4.724;2024-03-23T12:03:22;11.10;99.90
27540;DHT22;15906;52.046;4.724;2024-03-23T12:05:52;11.40;99.90
27540;DHT22;15906;52.046;4.724;2024-03-23T12:10:51;11.80;98.70
27540;DHT22;15906;52.046;4.724;2024-03-23T12:13:18;11.60;98.40
27540;DHT22;15906;52.046;4.724;2024-03-23T12:15:49;10.90;98.10
27540;DHT22;15906;52.046;4.724;2024-03-23T12:18:15;10.70;99.90
27540;DHT22;15906;52.046;4.724;2024-03-23T12:20:41;10.80;99.90
27540;DHT22;15906;52.046;4.724;2024-03-23T12:23:12;11.10;99.90
27540;DHT22;15906;52.046;4.724;2024-03-23T12:25:39;11.30;99.90
27540;DHT22;15906;52.046;4.724;2024-03-23T12:28:05;11.50;99.90
27540;DHT22;15906;52.046;4.724;2024-03-23T12:30:41;11.60;99.90
27540;DHT22;15906;52.046;4.724;2024-03-23T12:33:07;11.60;99.90
27540;DHT22;15906;52.046;4.724;2024-03-23T12:35:32;11.70;98.60
27540;DHT22;15906;52.046;4.724;2024-03-23T12:37:58;11.40;98.60
27540;DHT22;15906;52.046;4.724;2024-03-23T12:40:24;10.70;99.90
27540;DHT22;15906;52.046;4.724;2024-03-23T12:42:49;9.90;99.90
27540;DHT22;15906;52.046;4.724;2024-03-23T12:45:15;9.50;99.90
27540;DHT22;15906;52.046;4.724;2024-03-23T12:47:41;9.40;99.90
27540;DHT22;15906;52.046;4.724;2024-03-23T12:50:07;9.10;99.90
27540;DHT22;15906;52.046;4.724;2024-03-23T12:52:33;8.90;99.90
27540;DHT22;15906;52.046;4.724;2024-03-23T12:54:59;8.60;99.90
27540;DHT22;15906;52.046;4.724;2024-03-23T12:57:25;8.50;99.90
27540;DHT22;15906;52.046;4.724;2024-03-23T12:59:51;8.70;99.90
27540;DHT22;15906;52.046;4.724;2024-03-23T13:02:21;9.10;99.90
27540;DHT22;15906;52.046;4.724;2024-03-23T13:04:50;9.10;99.90
27540;DHT22;15906;52.046;4.724;2024-03-23T13:07:20;8.90;99.90
27540;DHT22;15906;52.046;4.724;2024-03-23T13:09:46;8.60;99.90
27540;DHT22;15906;52.046;4.724;2024-03-23T13:12:12;8.20;99.90
27540;DHT22;15906;52.046;4.724;2024-03-23T13:14:41;7.90;99.90
27540;DHT22;15906;52.046;4.724;2024-03-23T13:17:07;7.90;99.90
27540;DHT22;15906;52.046;4.724;2024-03-23T13:19:33;8.30;99.90
27540;DHT22;15906;52.046;4.724;2024-03-23T13:22:00;8.80;99.90
27540;DHT22;15906;52.046;4.724;2024-03-23T13:24:27;9.40;99.90
27540;DHT22;15906;52.046;4.724;2024-03-23T13:26:53;9.70;99.90
27540;DHT22;15906;52.046;4.724;2024-03-23T13:29:20;10.20;99.90
27540;DHT22;15906;52.046;4.724;2024-03-23T13:31:46;10.30;99.90
27540;DHT22;15906;52.046;4.724;2024-03-23T13:34:12;10.60;99.90
27540;DHT22;15906;52.046;4.724;2024-03-23T13:36:40;10.70;99.90
27540;DHT22;15906;52.046;4.724;2024-03-23T13:39:07;10.80;99.90
27540;DHT22;15906;52.046;4.724;2024-03-23T13:41:38;10.80;99.90
27540;DHT22;15906;52.046;4.724;2024-03-23T13:44:04;10.60;99.90
27540;DHT22;15906;52.046;4.724;2024-03-23T13:46:30;10.60;99.90
27540;DHT22;15906;52.046;4.724;2024-03-23T13:48:56;10.60;99.90
27540;DHT22;15906;52.046;4.724;2024-03-23T13:51:24;10.70;99.90
27540;DHT22;15906;52.046;4.724;2024-03-23T13:53:54;10.90;99.90
27540;DHT22;15906;52.046;4.724;2024-03-23T13:56:20;10.60;99.90
27540;DHT22;15906;52.046;4.724;2024-03-23T13:58:46;10.70;99.90
27540;DHT22;15906;52.046;4.724;2024-03-23T14:01:16;10.50;99.90
27540;DHT22;15906;52.046;4.724;2024-03-23T14:03:42;10.30;99.90
27540;DHT22;15906;52.046;4.724;2024-03-23T14:06:09;10.10;99.90
27540;DHT22;15906;52.046;4.724;2024-03-23T14:08:35;10.20;99.90
27540;DHT22;15906;52.046;4.724;2024-03-23T14:11:05;10.10;99.90
27540;DHT22;15906;52.046;4.724;2024-03-23T14:13:31;10.00;99.90
27540;DHT22;15906;52.046;4.724;2024-03-23T14:15:57;10.10;99.90
27540;DHT22;15906;52.046;4.724;2024-03-23T14:18:24;10.20;99.90
27540;DHT22;15906;52.046;4.724;2024-03-23T14:20:50;10.20;99.90
27540;DHT22;15906;52.046;4.724;2024-03-23T14:23:16;10.10;99.90
27540;DHT22;15906;52.046;4.724;2024-03-23T14:25:42;10.20;99.90
27540;DHT22;15906;52.046;4.724;2024-03-23T14:28:08;10.10;99.90
27540;DHT22;15906;52.046;4.724;2024-03-23T14:30:40;10.00;99.90
27540;DHT22;15906;52.046;4.724;2024-03-23T14:33:06;9.70;99.90
27540;DHT22;15906;52.046;4.724;2024-03-23T14:35:31;9.40;99.90
27540;DHT22;15906;52.046;4.724;2024-03-23T14:37:58;9.20;99.90
27540;DHT22;15906;52.046;4.724;2024-03-23T14:40:24;9.30;99.90
27540;DHT22;15906;52.046;4.724;2024-03-23T14:42:53;9.30;99.90
27540;DHT22;15906;52.046;4.724;2024-03-23T14:45:19;9.30;99.90
27540;DHT22;15906;52.046;4.724;2024-03-23T14:47:44;9.20;99.90
27540;DHT22;15906;52.046;4.724;2024-03-23T14:50:10;9.00;99.90
27540;DHT22;15906;52.046;4.724;2024-03-23T14:52:44;9.10;99.90
27540;DHT22;15906;52.046;4.724;2024-03-23T14:55:09;9.10;99.90
27540;DHT22;15906;52.046;4.724;2024-03-23T14:57:35;9.20;99.90
27540;DHT22;15906;52.046;4.724;2024-03-23T15:00:01;9.40;99.90
27540;DHT22;15906;52.046;4.724;2024-03-23T15:02:28;9.40;99.90
27540;DHT22;15906;52.046;4.724;2024-03-23T15:04:55;9.30;99.90
27540;DHT22;15906;52.046;4.724;2024-03-23T15:07:21;9.20;99.90
27540;DHT22;15906;52.046;4.724;2024-03-23T15:09:46;9.10;99.90
27540;DHT22;15906;52.046;4.724;2024-03-23T15:12:12;9.10;99.90
27540;DHT22;15906;52.046;4.724;2024-03-23T15:14:37;9.20;99.90
27540;DHT22;15906;52.046;4.724;2024-03-23T15:17:03;9.30;99.90
27540;DHT22;15906;52.046;4.724;2024-03-23T15:19:32;9.40;99.90
27540;DHT22;15906;52.046;4.724;2024-03-23T15:21:58;9.40;99.90
27540;DHT22;15906;52.046;4.724;2024-03-23T15:24:24;9.40;99.90
27540;DHT22;15906;52.046;4.724;2024-03-23T15:26:50;9.30;99.90
27540;DHT22;15906;52.046;4.724;2024-03-23T15:29:17;9.30;99.90
27540;DHT22;15906;52.046;4.724;2024-03-23T15:31:43;9.30;99.90
27540;DHT22;15906;52.046;4.724;2024-03-23T15:34:10;9.30;99.90
27540;DHT22;15906;52.046;4.724;2024-03-23T15:36:39;9.30;99.90
27540;DHT22;15906;52.046;4.724;2024-03-23T15:39:05;9.30;99.90
27540;DHT22;15906;52.046;4.724;2024-03-23T15:41:31;9.20;99.90
27540;DHT22;15906;52.046;4.724;2024-03-23T15:43:59;9.20;99.90
27540;DHT22;15906;52.046;4.724;2024-03-23T15:46:25;9.20;99.90
27540;DHT22;15906;52.046;4.724;2024-03-23T15:48:50;9.30;99.90
27540;DHT22;15906;52.046;4.724;2024-03-23T15:51:16;9.40;99.90
27540;DHT22;15906;52.046;4.724;2024-03-23T15:53:43;9.40;99.90
27540;DHT22;15906;52.046;4.724;2024-03-23T15:56:09;9.50;99.90
27540;DHT22;15906;52.046;4.724;2024-03-23T15:58:35;9.40;99.90
27540;DHT22;15906;52.046;4.724;2024-03-23T16:01:06;9.40;99.90
27540;DHT22;15906;52.046;4.724;2024-03-23T16:03:34;9.50;99.90
27540;DHT22;15906;52.046;4.724;2024-03-23T16:06:01;9.50;99.90
27540;DHT22;15906;52.046;4.724;2024-03-23T16:08:28;9.60;99.90
27540;DHT22;15906;52.046;4.724;2024-03-23T16:10:54;9.60;99.90
27540;DHT22;15906;52.046;4.724;2024-03-23T16:13:20;9.60;99.90
27540;DHT22;15906;52.046;4.724;2024-03-23T16:15:55;9.50;99.90
27540;DHT22;15906;52.046;4.724;2024-03-23T16:18:21;9.40;99.90
27540;DHT22;15906;52.046;4.724;2024-03-23T16:20:58;9.30;99.90
27540;DHT22;15906;52.046;4.724;2024-03-23T16:23:24;9.30;99.90
27540;DHT22;15906;52.046;4.724;2024-03-23T16:25:51;9.20;99.90
27540;DHT22;15906;52.046;4.724;2024-03-23T16:31:05;9.00;99.90
27540;DHT22;15906;52.046;4.724;2024-03-23T16:33:34;9.00;99.90
27540;DHT22;15906;52.046;4.724;2024-03-23T16:36:08;9.00;99.90
27540;DHT22;15906;52.046;4.724;2024-03-23T16:38:42;8.90;99.90
27540;DHT22;15906;52.046;4.724;2024-03-23T16:41:09;8.90;99.90
27540;DHT22;15906;52.046;4.724;2024-03-23T16:43:36;8.80;99.90
27540;DHT22;15906;52.046;4.724;2024-03-23T16:46:07;8.80;99.90
27540;DHT22;15906;52.046;4.724;2024-03-23T16:48:36;8.80;99.90
27540;DHT22;15906;52.046;4.724;2024-03-23T16:51:03;8.90;99.90
27540;DHT22;15906;52.046;4.724;2024-03-23T16:53:29;8.80;99.90
27540;DHT22;15906;52.046;4.724;2024-03-23T16:56:05;8.70;99.90
27540;DHT22;15906;52.046;4.724;2024-03-23T16:58:34;8.70;99.90
27540;DHT22;15906;52.046;4.724;2024-03-23T17:01:07;8.60;99.90
27540;DHT22;15906;52.046;4.724;2024-03-23T17:03:37;8.60;99.90
27540;DHT22;15906;52.046;4.724;2024-03-23T17:08:30;8.50;99.90
27540;DHT22;15906;52.046;4.724;2024-03-23T17:10:59;8.50;99.90
27540;DHT22;15906;52.046;4.724;2024-03-23T17:13:27;8.30;99.90
27540;DHT22;15906;52.046;4.724;2024-03-23T17:15:52;8.30;99.90
27540;DHT22;15906;52.046;4.724;2024-03-23T17:18:18;8.20;99.90
27540;DHT22;15906;52.046;4.724;2024-03-23T17:20:44;8.10;99.90
27540;DHT22;15906;52.046;4.724;2024-03-23T17:23:10;8.10;99.90
27540;DHT22;15906;52.046;4.724;2024-03-23T17:25:36;8.10;99.90
27540;DHT22;15906;52.046;4.724;2024-03-23T17:28:02;8.10;99.90
27540;DHT22;15906;52.046;4.724;2024-03-23T17:30:27;8.10;99.90
27540;DHT22;15906;52.046;4.724;2024-03-23T17:32:53;8.10;99.90
27540;DHT22;15906;52.046;4.724;2024-03-23T17:35:18;8.10;99.90
27540;DHT22;15906;52.046;4.724;2024-03-23T17:37:45;8.20;99.90
27540;DHT22;15906;52.046;4.724;2024-03-23T17:40:10;8.20;99.90
27540;DHT22;15906;52.046;4.724;2024-03-23T17:42:38;8.20;99.90
27540;DHT22;15906;52.046;4.724;2024-03-23T17:45:05;8.20;99.90
27540;DHT22;15906;52.046;4.724;2024-03-23T17:47:37;8.10;99.90
27540;DHT22;15906;52.046;4.724;2024-03-23T17:50:04;8.10;99.90
27540;DHT22;15906;52.046;4.724;2024-03-23T17:52:30;8.10;99.90
27540;DHT22;15906;52.046;4.724;2024-03-23T17:54:56;8.00;99.90
27540;DHT22;15906;52.046;4.724;2024-03-23T17:57:22;7.90;99.90
27540;DHT22;15906;52.046;4.724;2024-03-23T17:59:48;7.90;99.90
27540;DHT22;15906;52.046;4.724;2024-03-23T18:02:14;7.90;99.90
27540;DHT22;15906;52.046;4.724;2024-03-23T18:04:43;7.90;99.90
27540;DHT22;15906;52.046;4.724;2024-03-23T18:07:09;7.90;99.90
27540;DHT22;15906;52.046;4.724;2024-03-23T18:09:35;7.90;99.90
27540;DHT22;15906;52.046;4.724;2024-03-23T18:12:01;7.90;99.90
27540;DHT22;15906;52.046;4.724;2024-03-23T18:14:29;8.00;99.90
27540;DHT22;15906;52.046;4.724;2024-03-23T18:16:55;8.00;99.90
27540;DHT22;15906;52.046;4.724;2024-03-23T18:19:21;8.00;99.90
27540;DHT22;15906;52.046;4.724;2024-03-23T18:21:47;7.90;99.90